Time;durP1;ratioP1;P1;durP2;ratioP2;P2;SDS_P1;SDS_P2;PMS_P1;PMS_P2;Temp;Humidity;BMP_temperature;BMP_pressure;BME280_temperature;BME280_humidity;BME280_pressure;Samples;Min_cycle;Max_cycle;Signal;HPM_P1;HPM_P2
2021/12/08 00:00:24;;;;;;;2.80;1.13;;;;;;;3.18;100.00;97897.88;4995602;28;20489;-75
2021/12/08 00:02:56;;;;;;;4.22;0.75;;;;;;;3.19;100.00;97891.81;4995719;28;20022;-75
2021/12/08 00:05:22;;;;;;;1.85;0.60;;;;;;;3.22;100.00;97907.19;4995557;28;20112;-75
2021/12/08 00:07:56;;;;;;;;;;;;;;;3.23;100.00;97899.41;4995603;28;20493;-76
2021/12/08 00:13:05;;;;;;;1.30;0.60;;;;;;;3.37;100.00;97888.50;4995688;28;20023;-76
2021/12/08 00:15:36;;;;;;;1.40;0.70;;;;;;;3.44;100.00;97889.13;4995606;28;20365;-75
2021/12/08 00:18:04;;;;;;;3.42;0.68;;;;;;;3.51;100.00;97890.56;4996223;28;20080;-76
2021/12/08 00:20:40;;;;;;;1.55;0.80;;;;;;;3.63;100.00;97870.25;4995562;28;20088;-74
2021/12/08 00:23:07;;;;;;;2.75;0.63;;;;;;;3.65;100.00;97896.06;4995301;28;20042;-75
2021/12/08 00:25:33;;;;;;;2.72;0.82;;;;;;;3.77;100.00;97890.38;4994170;28;20077;-75
2021/12/08 00:28:08;;;;;;;2.20;0.95;;;;;;;3.84;100.00;97891.81;4995359;28;20473;-76
2021/12/08 00:30:39;;;;;;;4.05;0.60;;;;;;;3.93;100.00;97881.09;4995187;28;20032;-76
2021/12/08 00:33:11;;;;;;;2.88;0.95;;;;;;;3.92;100.00;97887.19;4994021;28;20470;-76
2021/12/08 00:35:41;;;;;;;2.60;0.80;;;;;;;3.97;100.00;97877.50;4995302;28;20469;-75
2021/12/08 00:38:08;;;;;;;2.53;0.70;;;;;;;3.94;100.00;97882.78;4994919;28;20030;-77
2021/12/08 00:40:39;;;;;;;2.75;0.60;;;;;;;3.91;100.00;97890.69;4994950;28;20026;-75
2021/12/08 00:43:06;;;;;;;1.38;0.45;;;;;;;3.90;100.00;97886.41;4995146;28;20061;-77
2021/12/08 00:45:35;;;;;;;1.90;0.80;;;;;;;3.89;100.00;97876.13;4994811;28;20026;-76
2021/12/08 00:48:02;;;;;;;1.33;0.57;;;;;;;3.87;100.00;97886.53;4993204;28;20061;-75
2021/12/08 00:50:31;;;;;;;3.25;0.73;;;;;;;3.80;100.00;97879.06;4993279;28;20106;-76
2021/12/08 00:52:57;;;;;;;1.30;0.63;;;;;;;3.71;100.00;97869.94;4994710;28;20051;-76
2021/12/08 00:55:23;;;;;;;1.85;0.65;;;;;;;3.67;100.00;97886.50;4993243;28;20061;-76
2021/12/08 00:57:49;;;;;;;2.33;0.70;;;;;;;3.62;100.00;97871.16;4995039;28;20065;-75
2021/12/08 01:00:42;;;;;;;3.40;0.77;;;;;;;3.56;100.00;97866.22;4994963;28;20110;-76
2021/12/08 01:03:08;;;;;;;2.33;1.00;;;;;;;3.56;100.00;97865.38;4993196;28;20045;-76
2021/12/08 01:05:42;;;;;;;3.28;0.82;;;;;;;3.60;100.00;97861.78;4995848;28;20045;-77
2021/12/08 01:08:08;;;;;;;3.92;0.75;;;;;;;3.63;100.00;97880.59;4994596;28;20170;-75
2021/12/08 01:10:36;;;;;;;3.50;1.02;;;;;;;3.64;100.00;97869.34;4994309;28;20060;-75
2021/12/08 01:13:05;;;;;;;4.22;0.70;;;;;;;3.65;100.00;97889.16;4994743;28;20461;-76
2021/12/08 01:15:31;;;;;;;1.60;0.63;;;;;;;3.67;100.00;97886.50;4994623;28;20121;-76
2021/12/08 01:17:57;;;;;;;1.83;0.88;;;;;;;3.65;100.00;97886.56;4994008;28;20129;-75
2021/12/08 01:20:23;;;;;;;1.85;0.68;;;;;;;3.71;100.00;97879.47;4954269;28;20050;-76
2021/12/08 01:22:49;;;;;;;2.53;1.00;;;;;;;3.81;100.00;97875.56;4994288;28;20536;-76
2021/12/08 01:25:14;;;;;;;3.28;0.82;;;;;;;3.74;100.00;97887.91;4994303;28;20130;-76
2021/12/08 01:27:40;;;;;;;2.78;0.73;;;;;;;3.80;100.00;97881.66;4994523;28;20388;-76
2021/12/08 01:30:07;;;;;;;1.05;0.50;;;;;;;3.71;100.00;97877.72;4994474;28;20034;-76
2021/12/08 01:32:33;;;;;;;2.78;0.93;;;;;;;3.68;100.00;97886.44;4994365;28;20042;-76
2021/12/08 01:34:59;;;;;;;5.80;1.38;;;;;;;3.70;100.00;97886.38;4994118;28;20061;-76
2021/12/08 01:37:25;;;;;;;0.88;0.50;;;;;;;3.65;100.00;97883.13;4994559;28;20034;-77
2021/12/08 01:39:50;;;;;;;4.45;1.00;;;;;;;3.68;100.00;97891.63;4994327;28;20030;-76
2021/12/08 01:42:23;;;;;;;1.93;0.80;;;;;;;3.63;100.00;97874.59;4994058;28;20033;-76
2021/12/08 01:47:33;;;;;;;2.33;0.73;;;;;;;3.83;100.00;97907.41;4993847;28;20105;-76
2021/12/08 01:49:58;;;;;;;3.60;1.05;;;;;;;3.82;100.00;97903.13;4992739;28;20453;-76
2021/12/08 01:52:24;;;;;;;4.13;0.80;;;;;;;3.84;100.00;97894.41;4993974;28;20111;-76
2021/12/08 01:54:50;;;;;;;1.88;0.70;;;;;;;3.87;100.00;97886.53;4993794;28;20117;-76
2021/12/08 01:57:16;;;;;;;2.72;0.80;;;;;;;3.85;100.00;97893.50;4993912;28;20153;-76
2021/12/08 01:59:41;;;;;;;1.95;0.60;;;;;;;3.92;100.00;97888.94;4993707;28;20374;-76
2021/12/08 02:02:07;;;;;;;1.58;0.68;;;;;;;3.94;100.00;97902.66;4994127;28;20042;-76
2021/12/08 02:04:33;;;;;;;;;;;;;;;3.88;100.00;97895.97;4994984;28;20034;-76
2021/12/08 02:07:00;;;;;;;2.20;0.63;;;;;;;3.88;100.00;97895.13;4994769;28;19910;-77
2021/12/08 02:09:25;;;;;;;1.20;0.60;;;;;;;3.92;100.00;97896.69;4994276;28;20028;-75
2021/12/08 02:11:54;;;;;;;1.88;0.60;;;;;;;4.01;100.00;97885.97;4993807;28;20034;-75
2021/12/08 02:14:20;;;;;;;1.60;0.52;;;;;;;4.01;100.00;97886.81;4993748;28;20442;-76
2021/12/08 02:16:46;;;;;;;1.75;0.63;;;;;;;4.07;100.00;97908.19;4993725;28;20089;-75
2021/12/08 02:19:12;;;;;;;1.60;0.60;;;;;;;4.15;100.00;97893.16;4993340;28;20121;-75
2021/12/08 02:21:40;;;;;;;1.05;0.50;;;;;;;4.24;100.00;97890.19;4993412;28;20060;-76
2021/12/08 02:24:11;;;;;;;2.25;0.85;;;;;;;4.24;100.00;97900.56;4993643;28;20117;-75
2021/12/08 02:26:39;;;;;;;1.15;0.50;;;;;;;4.35;100.00;97894.03;4993645;28;20038;-75
2021/12/08 02:29:10;;;;;;;1.67;0.75;;;;;;;4.41;100.00;97892.94;4993590;28;20040;-75
2021/12/08 02:31:51;;;;;;;1.48;0.50;;;;;;;4.44;100.00;97890.22;4997560;28;20483;-75
2021/12/08 02:47:58;;;;;;;2.13;0.60;;;;;;;4.55;100.00;97916.47;4997075;28;20052;-75
2021/12/08 02:50:37;;;;;;;2.40;0.80;;;;;;;4.59;100.00;97899.06;4997272;28;20117;-76
2021/12/08 02:53:05;;;;;;;1.00;0.57;;;;;;;4.58;100.00;97907.75;4995888;28;20074;-76
2021/12/08 02:55:31;;;;;;;1.42;0.40;;;;;;;4.62;100.00;97911.88;4996732;28;20022;-76
2021/12/08 02:57:57;;;;;;;1.70;0.70;;;;;;;4.65;100.00;97909.16;4997408;28;20037;-75
2021/12/08 03:00:26;;;;;;;1.40;0.60;;;;;;;4.73;100.00;97914.88;4996740;28;20085;-75
2021/12/08 03:02:55;;;;;;;1.17;0.40;;;;;;;4.70;100.00;97930.53;4997044;28;20085;-75
2021/12/08 03:05:22;;;;;;;1.27;0.50;;;;;;;4.73;100.00;97925.22;4996711;28;20030;-72
2021/12/08 03:07:48;;;;;;;1.05;0.50;;;;;;;4.73;100.00;97930.41;4996806;28;20041;-73
2021/12/08 03:10:18;;;;;;;1.70;0.65;;;;;;;4.75;100.00;97930.34;4996676;28;20404;-73
2021/12/08 03:12:44;;;;;;;3.95;1.00;;;;;;;4.67;100.00;97936.69;4996603;28;20431;-73
2021/12/08 03:15:13;;;;;;;1.10;0.50;;;;;;;4.74;100.00;97939.88;4954619;28;20045;-75
2021/12/08 03:17:38;;;;;;;1.67;0.60;;;;;;;4.68;100.00;97930.59;4998132;28;20050;-76
2021/12/08 03:20:08;;;;;;;1.27;0.60;;;;;;;4.70;100.00;97925.34;4996376;28;20037;-75
2021/12/08 03:22:36;;;;;;;5.07;0.85;;;;;;;4.73;100.00;97935.59;4996599;28;20030;-76
2021/12/08 03:25:05;;;;;;;1.23;0.50;;;;;;;4.70;100.00;97926.19;4996564;28;20034;-75
2021/12/08 03:27:36;;;;;;;1.00;0.50;;;;;;;4.77;100.00;97937.16;4996255;28;20049;-73
2021/12/08 03:30:14;;;;;;;2.47;0.70;;;;;;;4.80;100.00;97938.78;4996265;28;20026;-73
2021/12/08 03:32:40;;;;;;;1.75;0.68;;;;;;;4.77;100.00;97937.16;4996294;28;20117;-75
2021/12/08 03:35:08;;;;;;;0.73;0.40;;;;;;;4.79;100.00;97934.50;5011464;28;20026;-76
2021/12/08 03:37:39;;;;;;;1.38;0.60;;;;;;;4.75;100.00;97946.75;4996308;28;20081;-75
2021/12/08 03:40:11;;;;;;;2.70;0.90;;;;;;;4.84;100.00;97951.50;4996045;28;20034;-73
2021/12/08 03:42:38;;;;;;;1.88;0.80;;;;;;;4.76;100.00;97953.59;4995392;28;20030;-73
2021/12/08 03:45:29;;;;;;;3.47;0.73;;;;;;;4.83;100.00;97954.16;4996210;28;20034;-73
2021/12/08 03:48:02;;;;;;;2.58;0.90;;;;;;;4.78;100.00;97956.97;4996337;28;20031;-74
2021/12/08 03:50:31;;;;;;;2.10;0.57;;;;;;;4.83;100.00;97967.97;4996036;28;20033;-73
2021/12/08 03:52:56;;;;;;;3.15;0.70;;;;;;;4.85;100.00;97952.34;4995988;28;20045;-72
2021/12/08 03:55:22;;;;;;;2.25;0.70;;;;;;;4.83;100.00;97957.59;4996074;28;20034;-73
2021/12/08 03:57:47;;;;;;;2.35;0.77;;;;;;;4.85;100.00;97962.72;4996041;28;20035;-73
2021/12/08 04:00:17;;;;;;;1.88;0.60;;;;;;;4.81;100.00;97959.44;4995927;28;20061;-74
2021/12/08 04:02:43;;;;;;;2.30;1.02;;;;;;;4.89;100.00;97972.03;4996053;28;20547;-74
2021/12/08 04:05:09;;;;;;;;;;;;;;;4.83;100.00;97970.53;4996619;28;20084;-73
2021/12/08 04:07:42;;;;;;;1.25;0.60;;;;;;;4.80;100.00;97972.47;4996032;28;19909;-73
2021/12/08 04:10:15;;;;;;;1.05;0.50;;;;;;;4.77;100.00;97972.59;5010850;28;20038;-73
2021/12/08 04:12:40;;;;;;;3.30;1.20;;;;;;;4.89;100.00;97975.47;4996132;28;20031;-72
2021/12/08 04:15:06;;;;;;;1.88;0.85;;;;;;;4.87;100.00;97972.09;4995660;28;20045;-73
2021/12/08 04:17:44;;;;;;;5.35;1.38;;;;;;;4.89;100.00;97967.69;4995914;28;20185;-74
2021/12/08 04:20:19;;;;;;;1.88;0.80;;;;;;;4.90;100.00;97973.72;4995622;28;20057;-73
2021/12/08 04:22:49;;;;;;;2.42;0.70;;;;;;;4.87;100.00;97966.09;4995629;28;20030;-73
2021/12/08 04:25:23;;;;;;;1.40;0.73;;;;;;;4.89;100.00;97969.44;4995458;28;20026;-73
2021/12/08 04:27:51;;;;;;;1.77;0.60;;;;;;;4.82;100.00;97968.91;4994291;28;20033;-74
2021/12/08 04:30:24;;;;;;;1.77;0.70;;;;;;;4.87;100.00;97964.34;4995078;28;20030;-73
2021/12/08 04:32:50;;;;;;;1.77;0.68;;;;;;;4.80;100.00;97968.13;4995108;28;20034;-76
2021/12/08 04:35:19;;;;;;;4.32;0.77;;;;;;;4.94;100.00;97960.56;4994948;28;20026;-75
2021/12/08 04:37:49;;;;;;;4.13;0.93;;;;;;;4.94;100.00;97967.50;4995422;28;20038;-75
2021/12/08 04:40:43;;;;;;;3.83;0.90;;;;;;;4.99;100.00;97969.00;4995209;28;20136;-75
2021/12/08 04:43:20;;;;;;;1.65;0.60;;;;;;;4.95;100.00;97969.19;4995180;28;20030;-74
2021/12/08 04:46:01;;;;;;;;;;;;;;;5.00;100.00;97967.25;4995853;28;20371;-75
2021/12/08 05:00:17;;;;;;;2.33;0.95;;;;;;;5.02;100.00;97987.00;4993999;28;20504;-76
2021/12/08 05:07:53;;;;;;;3.78;1.20;;;;;;;5.10;100.00;97993.63;4994451;28;20037;-75
2021/12/08 05:10:30;;;;;;;2.13;0.80;;;;;;;5.14;100.00;97993.41;4994818;28;20034;-76
2021/12/08 05:12:59;;;;;;;3.30;1.35;;;;;;;5.11;100.00;98005.69;4994630;28;20400;-75
2021/12/08 05:15:29;;;;;;;1.67;0.60;;;;;;;5.21;100.00;97999.16;4994394;28;20458;-74
2021/12/08 05:18:00;;;;;;;1.65;0.70;;;;;;;5.17;100.00;98001.06;4952240;28;20540;-76
2021/12/08 05:20:26;;;;;;;2.03;0.90;;;;;;;5.22;100.00;98009.47;4994477;28;20465;-75
2021/12/08 05:22:56;;;;;;;1.00;0.40;;;;;;;5.23;100.00;98013.75;4994660;28;20042;-74
2021/12/08 05:25:25;;;;;;;4.45;1.30;;;;;;;5.29;100.00;98017.81;4994142;28;20481;-75
2021/12/08 05:27:53;;;;;;;3.53;0.80;;;;;;;5.31;100.00;98021.19;4993168;28;20041;-75
2021/12/08 05:30:28;;;;;;;2.35;0.80;;;;;;;5.24;100.00;98022.38;4994010;28;20030;-74
2021/12/08 05:32:55;;;;;;;2.13;0.65;;;;;;;5.30;100.00;98022.94;4992797;28;20030;-76
2021/12/08 05:35:24;;;;;;;2.47;0.80;;;;;;;5.25;100.00;98024.91;4993682;28;20492;-75
2021/12/08 05:37:50;;;;;;;2.13;0.73;;;;;;;5.27;100.00;98027.41;4992987;28;20072;-75
2021/12/08 05:40:20;;;;;;;2.58;1.00;;;;;;;5.32;100.00;98038.44;4993790;28;20095;-75
2021/12/08 05:42:46;;;;;;;3.28;0.77;;;;;;;5.28;100.00;98035.13;4994020;28;20038;-74
2021/12/08 05:45:15;;;;;;;2.58;0.70;;;;;;;5.26;100.00;98039.53;5008972;28;20038;-75
2021/12/08 05:47:43;;;;;;;3.03;0.68;;;;;;;5.22;100.00;98031.97;4992510;28;20038;-75
2021/12/08 05:50:12;;;;;;;4.32;0.88;;;;;;;5.22;100.00;98038.00;4993742;28;20030;-75
2021/12/08 05:52:38;;;;;;;4.30;0.88;;;;;;;5.25;100.00;98042.22;4993936;28;20026;-75
2021/12/08 05:55:06;;;;;;;3.78;0.88;;;;;;;5.13;100.00;98032.38;4993356;28;20026;-75
2021/12/08 05:57:35;;;;;;;2.42;0.90;;;;;;;5.10;100.00;98032.50;4993401;28;20038;-75
2021/12/08 06:00:06;;;;;;;4.47;1.30;;;;;;;5.09;100.00;98044.63;4993349;28;20030;-75
2021/12/08 06:02:35;;;;;;;1.65;1.00;;;;;;;5.14;100.00;98036.66;4993485;28;20034;-75
2021/12/08 06:05:01;;;;;;;2.97;0.80;;;;;;;5.15;100.00;98040.94;4993454;28;20502;-74
2021/12/08 06:07:28;;;;;;;2.92;0.80;;;;;;;5.17;100.00;98041.72;4993507;28;20066;-75
2021/12/08 06:09:55;;;;;;;;;;;;;;;5.12;100.00;98039.31;4993809;28;20031;-76
2021/12/08 06:12:21;;;;;;;2.40;0.90;;;;;;;5.11;100.00;98039.38;4993163;28;19910;-76
2021/12/08 06:14:53;;;;;;;7.00;1.35;;;;;;;5.21;100.00;98038.91;4991974;28;20038;-75
2021/12/08 06:17:21;;;;;;;4.97;1.10;;;;;;;5.18;100.00;98048.59;4993238;28;20137;-75
2021/12/08 06:19:48;;;;;;;3.50;0.82;;;;;;;5.15;100.00;98057.34;4993442;28;20097;-75
2021/12/08 06:22:16;;;;;;;2.92;0.90;;;;;;;5.21;100.00;98064.00;4993297;28;20481;-76
2021/12/08 06:24:42;;;;;;;5.13;1.83;;;;;;;5.17;100.00;98062.47;4993114;28;20042;-75
2021/12/08 06:27:08;;;;;;;2.22;0.60;;;;;;;5.09;100.00;98064.53;4993532;28;20540;-74
2021/12/08 06:29:34;;;;;;;2.72;1.13;;;;;;;5.09;100.00;98052.41;4993335;28;20034;-76
2021/12/08 06:32:03;;;;;;;2.90;1.15;;;;;;;5.20;100.00;98062.34;4992149;28;20124;-74
2021/12/08 06:34:29;;;;;;;5.07;0.85;;;;;;;5.14;100.00;98052.22;4993327;28;20444;-75
2021/12/08 06:36:59;;;;;;;4.38;0.80;;;;;;;5.16;100.00;98058.19;4992916;28;20381;-75
2021/12/08 06:39:33;;;;;;;2.55;0.90;;;;;;;5.17;100.00;98062.47;4993102;28;20477;-75
2021/12/08 06:42:07;;;;;;;2.63;0.80;;;;;;;5.16;100.00;98059.03;4993150;28;20030;-74
2021/12/08 06:44:40;;;;;;;4.40;0.75;;;;;;;5.10;100.00;98055.84;4993240;28;20050;-76
2021/12/08 06:47:08;;;;;;;1.90;0.70;;;;;;;5.16;100.00;98060.78;4993099;28;20035;-75
2021/12/08 06:49:34;;;;;;;1.95;1.17;;;;;;;5.19;100.00;98074.47;4993216;28;20078;-76
2021/12/08 06:52:16;;;;;;;1.50;0.82;;;;;;;5.18;100.00;98067.59;4993126;28;20435;-75
2021/12/08 06:54:45;;;;;;;3.05;1.10;;;;;;;5.12;100.00;98070.44;4992813;28;20092;-72
2021/12/08 06:57:23;;;;;;;2.97;0.75;;;;;;;5.18;100.00;98069.34;4992613;28;20426;-73
2021/12/08 06:59:57;;;;;;;4.13;1.10;;;;;;;5.27;100.00;98071.50;4991757;28;20046;-74
2021/12/08 07:03:29;;;;;;;2.05;0.73;;;;;;;5.21;100.00;98077.81;4992858;28;20046;-73
2021/12/08 07:05:31;;;;;;;2.65;0.80;;;;;;;5.26;100.00;98069.81;4978734;28;20046;-73
2021/12/08 07:08:06;;;;;;;2.05;0.80;;;;;;;5.15;100.00;98080.69;4992890;28;20030;-73
2021/12/08 07:10:37;;;;;;;5.88;0.93;;;;;;;5.21;100.00;98087.34;4992922;28;20026;-72
2021/12/08 07:13:11;;;;;;;3.25;0.90;;;;;;;5.23;100.00;98098.47;4993075;28;20030;-74
2021/12/08 07:15:46;;;;;;;1.80;0.60;;;;;;;5.23;100.00;98095.88;4952844;28;20552;-73
2021/12/08 07:18:39;;;;;;;1.67;0.70;;;;;;;5.18;100.00;98093.53;4996287;28;20141;-74
2021/12/08 07:21:09;;;;;;;2.08;1.13;;;;;;;5.19;100.00;98099.56;4989190;28;20038;-74
2021/12/08 07:23:39;;;;;;;2.38;0.95;;;;;;;5.17;100.00;98101.38;4996428;28;20058;-74
2021/12/08 07:26:09;;;;;;;2.80;1.02;;;;;;;5.19;100.00;98094.38;4996176;28;20045;-74
2021/12/08 07:28:40;;;;;;;3.65;0.90;;;;;;;5.08;100.00;98094.81;4996310;28;20038;-74
2021/12/08 07:31:17;;;;;;;2.65;1.10;;;;;;;5.11;100.00;98099.88;4995020;28;20388;-74
2021/12/08 07:33:43;;;;;;;2.22;1.13;;;;;;;5.07;100.00;98116.44;4996308;28;20034;-73
2021/12/08 07:36:15;;;;;;;3.15;1.40;;;;;;;5.09;100.00;98116.38;5011029;28;20116;-72
2021/12/08 07:38:42;;;;;;;3.83;0.93;;;;;;;5.03;100.00;98115.72;4996099;28;20034;-73
2021/12/08 07:41:20;;;;;;;2.85;0.90;;;;;;;5.08;100.00;98118.13;4994736;28;20079;-72
2021/12/08 07:43:51;;;;;;;2.85;0.95;;;;;;;5.10;100.00;98118.91;4996094;28;20041;-74
2021/12/08 07:46:31;;;;;;;2.20;0.90;;;;;;;5.02;100.00;98126.16;4994519;28;20461;-74
2021/12/08 07:49:19;;;;;;;2.08;0.70;;;;;;;4.95;100.00;98130.75;4995862;28;20058;-74
2021/12/08 07:51:51;;;;;;;4.40;1.40;;;;;;;4.97;100.00;98120.31;4966714;28;20177;-75
2021/12/08 07:54:21;;;;;;;2.25;0.80;;;;;;;5.03;100.00;98113.13;4995841;28;20045;-74
2021/12/08 07:56:51;;;;;;;4.95;1.30;;;;;;;5.04;100.00;98124.34;4994384;28;20073;-74
2021/12/08 07:59:18;;;;;;;4.15;0.77;;;;;;;5.10;100.00;98129.28;4995807;28;20106;-75
2021/12/08 08:01:47;;;;;;;2.65;1.17;;;;;;;5.02;100.00;98142.56;4995251;28;20397;-75
2021/12/08 08:04:20;;;;;;;3.65;1.00;;;;;;;4.96;100.00;98142.81;4995363;28;20393;-74
2021/12/08 08:06:52;;;;;;;3.40;1.20;;;;;;;4.95;100.00;98145.47;4994414;28;20030;-75
2021/12/08 08:09:22;;;;;;;2.00;0.60;;;;;;;5.04;100.00;98145.94;5010648;28;20026;-75
2021/12/08 08:11:57;;;;;;;5.88;0.90;;;;;;;5.02;100.00;98152.94;4995547;28;20034;-75
2021/12/08 08:14:29;;;;;;;4.97;0.90;;;;;;;5.07;100.00;98155.34;4995081;28;20062;-74
2021/12/08 08:16:57;;;;;;;2.95;0.73;;;;;;;5.10;100.00;98151.78;4994868;28;20113;-75
2021/12/08 08:19:28;;;;;;;5.88;0.82;;;;;;;5.05;100.00;98154.56;4995225;28;20030;-72
2021/12/08 08:21:58;;;;;;;3.38;0.63;;;;;;;5.04;100.00;98158.91;4994197;28;20359;-73
2021/12/08 08:24:23;;;;;;;2.17;0.80;;;;;;;5.08;100.00;98157.03;4995171;28;20038;-73
2021/12/08 08:26:52;;;;;;;1.75;0.65;;;;;;;5.12;100.00;98144.78;4993781;28;20382;-73
2021/12/08 08:29:18;;;;;;;3.28;0.90;;;;;;;5.10;100.00;98155.22;4995085;28;20058;-73
2021/12/08 08:31:58;;;;;;;2.70;1.17;;;;;;;4.96;100.00;98155.78;4996004;28;20082;-73
2021/12/08 08:34:24;;;;;;;2.38;1.08;;;;;;;4.92;100.00;98155.94;4994170;28;20030;-73
2021/12/08 08:36:50;;;;;;;5.85;1.25;;;;;;;5.10;100.00;98156.97;4995360;28;20023;-74
2021/12/08 08:39:29;;;;;;;3.05;0.82;;;;;;;5.03;100.00;98156.38;4994066;28;20062;-74
2021/12/08 08:42:20;;;;;;;2.80;1.10;;;;;;;5.02;100.00;98168.50;4994749;28;20416;-75
2021/12/08 08:45:19;;;;;;;2.05;0.73;;;;;;;5.01;100.00;98159.03;4994514;28;20070;-73
2021/12/08 08:48:06;;;;;;;5.15;1.40;;;;;;;5.08;100.00;98166.56;4968215;28;20038;-74
2021/12/08 08:50:52;;;;;;;;;;;;;;;4.94;100.00;98167.09;4997658;28;20031;-74
2021/12/08 08:53:21;;;;;;;1.52;0.82;;;;;;;4.93;100.00;98170.59;4994549;28;19920;-74
2021/12/08 08:55:49;;;;;;;5.82;1.10;;;;;;;5.01;100.00;98168.56;4994508;28;20030;-74
2021/12/08 08:58:17;;;;;;;6.25;0.90;;;;;;;4.98;100.00;98168.66;4994178;28;20078;-74
2021/12/08 09:01:05;;;;;;;2.53;1.00;;;;;;;4.97;100.00;98154.03;4994309;28;20525;-74
2021/12/08 09:03:34;;;;;;;3.58;1.00;;;;;;;4.99;100.00;98160.00;4993215;28;20041;-74
2021/12/08 09:06:06;;;;;;;4.68;1.27;;;;;;;5.18;100.00;98154.91;4994036;28;20034;-74
2021/12/08 09:08:34;;;;;;;1.90;0.75;;;;;;;5.21;100.00;98155.59;4994173;28;20054;-73
2021/12/08 09:11:18;;;;;;;5.25;1.48;;;;;;;5.10;100.00;98160.41;4994341;28;20026;-74
2021/12/08 09:13:49;;;;;;;2.55;1.00;;;;;;;5.17;100.00;98168.78;4994522;28;20042;-75
2021/12/08 09:16:21;;;;;;;5.43;1.40;;;;;;;5.10;100.00;98175.13;4958305;28;20576;-73
2021/12/08 09:19:04;;;;;;;3.00;1.13;;;;;;;5.18;100.00;98173.91;4994145;28;20033;-73
2021/12/08 09:21:47;;;;;;;5.80;1.08;;;;;;;5.14;100.00;98168.91;4994122;28;20077;-73
2021/12/08 09:24:34;;;;;;;4.28;1.10;;;;;;;5.19;100.00;98182.53;4994128;28;20115;-73
2021/12/08 09:27:01;;;;;;;3.72;0.60;;;;;;;5.22;100.00;98182.38;4994118;28;20536;-74
2021/12/08 09:29:44;;;;;;;3.45;1.00;;;;;;;5.26;100.00;98192.56;5004041;28;20038;-73
2021/12/08 09:32:23;;;;;;;2.85;0.90;;;;;;;5.21;100.00;98207.47;5009913;28;20057;-73
2021/12/08 09:35:00;;;;;;;2.92;1.00;;;;;;;5.32;100.00;98209.63;5008786;28;20031;-75
2021/12/08 09:37:33;;;;;;;3.23;0.80;;;;;;;5.21;100.00;98206.63;4998775;28;20034;-74
2021/12/08 09:40:07;;;;;;;3.15;0.98;;;;;;;5.31;100.00;98202.75;4993069;28;20092;-75
2021/12/08 09:42:48;;;;;;;3.80;1.02;;;;;;;5.33;100.00;98195.75;4994233;28;20092;-74
2021/12/08 09:45:33;;;;;;;3.00;1.00;;;;;;;5.41;100.00;98195.44;4993839;28;20389;-74
2021/12/08 09:48:04;;;;;;;2.72;1.00;;;;;;;5.33;100.00;98198.34;4992713;28;20061;-74
2021/12/08 09:50:32;;;;;;;2.78;0.60;;;;;;;5.32;100.00;98183.69;4993394;28;20041;-75
2021/12/08 09:52:57;;;;;;;4.13;0.77;;;;;;;5.38;100.00;98191.22;5008685;28;20469;-75
2021/12/08 09:55:23;;;;;;;3.50;1.17;;;;;;;5.37;100.00;98202.50;4993484;28;20467;-75
2021/12/08 09:57:49;;;;;;;5.70;0.97;;;;;;;5.33;100.00;98195.75;4992452;28;20038;-75
2021/12/08 10:00:22;;;;;;;5.28;1.13;;;;;;;5.42;100.00;98202.31;5008869;28;20277;-76
2021/12/08 10:02:48;;;;;;;4.00;1.05;;;;;;;5.46;100.00;98196.09;4993552;28;20481;-75
2021/12/08 10:05:16;;;;;;;3.58;1.00;;;;;;;5.37;100.00;98211.13;5008440;28;20053;-75
2021/12/08 10:07:43;;;;;;;2.22;1.00;;;;;;;5.52;100.00;98211.44;4993912;28;20054;-74
2021/12/08 10:10:11;;;;;;;3.22;1.10;;;;;;;5.50;100.00;98203.69;4993738;28;20034;-74
2021/12/08 10:12:37;;;;;;;3.88;0.93;;;;;;;5.42;100.00;98199.72;4993346;28;20034;-74
2021/12/08 10:15:09;;;;;;;4.38;0.80;;;;;;;5.49;100.00;98203.75;4993320;28;20045;-74
2021/12/08 10:17:34;;;;;;;4.22;0.90;;;;;;;5.55;100.00;98211.31;4993135;28;20050;-75
2021/12/08 10:20:22;;;;;;;7.63;1.17;;;;;;;5.46;100.00;98222.06;4992305;28;20102;-74
2021/12/08 10:23:18;;;;;;;4.18;1.33;;;;;;;5.56;100.00;98218.19;4993626;28;20042;-75
2021/12/08 10:25:46;;;;;;;2.97;0.98;;;;;;;5.58;100.00;98217.16;4993555;28;20038;-74
2021/12/08 10:28:15;;;;;;;2.15;0.65;;;;;;;5.65;100.00;98229.00;4992283;28;20113;-74
2021/12/08 10:30:52;;;;;;;4.82;1.15;;;;;;;5.57;100.00;98225.88;4993245;28;20027;-74
2021/12/08 10:39:14;;;;;;;2.72;0.82;;;;;;;5.69;100.00;98227.13;4983774;28;20031;-74
2021/12/08 10:42:06;;;;;;;3.30;0.77;;;;;;;5.70;100.00;98232.25;4993350;28;20034;-77
2021/12/08 10:44:53;;;;;;;3.22;1.30;;;;;;;5.68;100.00;98238.41;4991980;28;20037;-74
2021/12/08 10:47:24;;;;;;;;;;;;;;;5.62;100.00;98246.44;4993542;28;20026;-75
2021/12/08 10:55:16;;;;;;;5.60;0.95;;;;;;;5.65;100.00;98228.16;5000957;28;20045;-73
2021/12/08 10:57:41;;;;;;;2.92;0.90;;;;;;;5.64;100.00;98223.88;4995774;28;20457;-73
2021/12/08 11:00:09;;;;;;;5.85;0.98;;;;;;;5.68;100.00;98221.09;4996914;28;20126;-74
2021/12/08 11:02:48;;;;;;;3.65;1.02;;;;;;;5.62;100.00;98207.50;4996637;28;20038;-77
2021/12/08 11:05:25;;;;;;;1.80;0.70;;;;;;;5.81;100.00;98210.19;4996849;28;20046;-76
2021/12/08 11:07:59;;;;;;;3.92;1.50;;;;;;;5.71;100.00;98209.72;4997364;28;20034;-74
2021/12/08 11:10:24;;;;;;;4.28;1.45;;;;;;;5.72;100.00;98209.66;4996800;28;20026;-75
2021/12/08 11:12:50;;;;;;;1.27;0.50;;;;;;;5.76;100.00;98215.56;4996858;28;20041;-74
2021/12/08 11:15:21;;;;;;;5.40;1.45;;;;;;;5.86;100.00;98222.06;4995516;28;20041;-75
2021/12/08 11:17:46;;;;;;;6.15;1.63;;;;;;;5.83;100.00;98224.78;4955631;28;20128;-72
2021/12/08 11:20:31;;;;;;;3.28;0.90;;;;;;;5.84;100.00;98218.69;4996784;28;20477;-74
2021/12/08 11:23:02;;;;;;;12.10;1.50;;;;;;;5.77;100.00;98216.41;4997393;28;20177;-74
2021/12/08 11:25:39;;;;;;;4.50;1.00;;;;;;;5.76;100.00;98228.53;4997016;28;20522;-75
2021/12/08 11:28:30;;;;;;;4.93;1.10;;;;;;;5.82;100.00;98230.88;4996695;28;20037;-76
2021/12/08 11:31:08;;;;;;;2.22;0.68;;;;;;;5.74;100.00;98232.13;4993673;28;20048;-75
2021/12/08 11:33:37;;;;;;;1.67;0.70;;;;;;;5.84;100.00;98236.00;4996684;28;20036;-74
2021/12/08 11:36:25;;;;;;;3.90;0.98;;;;;;;5.78;100.00;98242.31;4996247;28;20027;-74
2021/12/08 11:38:51;;;;;;;5.15;0.90;;;;;;;5.79;100.00;98258.72;4996546;28;20034;-74
2021/12/08 11:41:29;;;;;;;3.38;0.98;;;;;;;5.86;100.00;98249.78;4996151;28;20041;-75
2021/12/08 11:43:57;;;;;;;3.75;1.20;;;;;;;5.79;100.00;98250.94;4996050;28;20105;-75
2021/12/08 11:46:23;;;;;;;3.20;1.10;;;;;;;5.81;100.00;98256.91;4996103;28;20038;-75
2021/12/08 11:48:57;;;;;;;4.30;0.82;;;;;;;5.82;100.00;98250.81;4996583;28;20488;-74
2021/12/08 11:51:22;;;;;;;3.78;1.05;;;;;;;5.80;100.00;98248.28;4995281;28;20022;-75
2021/12/08 11:53:48;;;;;;;2.80;0.90;;;;;;;5.80;100.00;98250.88;4995860;28;20041;-74
2021/12/08 11:56:33;;;;;;;4.75;1.17;;;;;;;5.75;100.00;98247.63;4994967;28;20039;-75
2021/12/08 11:59:00;;;;;;;5.53;0.90;;;;;;;5.88;100.00;98243.63;4995891;28;20462;-75
2021/12/08 12:01:26;;;;;;;4.45;1.23;;;;;;;5.78;100.00;98241.47;4995975;28;20081;-75
2021/12/08 12:03:51;;;;;;;7.47;1.17;;;;;;;5.87;100.00;98243.69;4995409;28;20469;-76
2021/12/08 12:06:17;;;;;;;10.15;1.25;;;;;;;5.91;100.00;98245.28;4995077;28;20042;-74
2021/12/08 12:08:46;;;;;;;2.33;0.90;;;;;;;5.92;100.00;98240.00;4995867;28;20373;-75
2021/12/08 12:11:12;;;;;;;4.00;0.90;;;;;;;6.00;100.00;98237.06;4995429;28;20026;-75
2021/12/08 12:13:37;;;;;;;1.85;0.70;;;;;;;6.04;100.00;98236.03;4995553;28;20085;-75
2021/12/08 12:16:03;;;;;;;5.57;0.90;;;;;;;5.99;100.00;98236.22;4995359;28;20042;-75
2021/12/08 12:18:32;;;;;;;3.28;0.70;;;;;;;5.98;100.00;98231.94;4996007;28;20026;-75
2021/12/08 12:21:15;;;;;;;7.15;2.30;;;;;;;5.95;100.00;98241.59;4995485;28;20034;-75
2021/12/08 12:24:05;;;;;;;4.72;0.90;;;;;;;5.94;100.00;98247.75;4995805;28;20030;-76
2021/12/08 12:26:57;;;;;;;3.55;1.05;;;;;;;5.96;100.00;98253.69;4995500;28;20041;-76
2021/12/08 12:30:04;;;;;;;3.33;0.80;;;;;;;6.00;100.00;98252.63;4995739;28;20030;-75
2021/12/08 12:32:38;;;;;;;3.10;0.93;;;;;;;5.92;100.00;98250.41;4966618;28;20042;-75
2021/12/08 12:35:27;;;;;;;2.35;0.90;;;;;;;5.84;100.00;98256.78;4995559;28;20038;-75
2021/12/08 12:38:36;;;;;;;6.55;1.13;;;;;;;5.95;100.00;98249.41;4995539;28;20146;-75
2021/12/08 12:41:04;;;;;;;5.95;1.17;;;;;;;5.87;100.00;98256.66;4979473;28;20042;-75